Time;durP1;ratioP1;P1;durP2;ratioP2;P2;SDS_P1;SDS_P2;PMS_P1;PMS_P2;Temp;Humidity;BMP_temperature;BMP_pressure;BME280_temperature;BME280_humidity;BME280_pressure;Samples;Min_cycle;Max_cycle;Signal;HPM_P1;HPM_P2
2022/12/28 00:01:14;;;;;;;3.87;2.40;;;16.30;50.60;17.40;101059.00;;;;5031143;28;20177;-48
2022/12/28 00:03:40;;;;;;;3.03;2.07;;;16.20;51.40;17.30;101041.00;;;;5030559;28;20294;-47
2022/12/28 00:06:06;;;;;;;4.07;2.50;;;16.20;51.70;17.00;100977.00;;;;5013736;28;20266;-47
2022/12/28 00:08:32;;;;;;;3.20;2.30;;;16.10;52.10;17.30;100981.00;;;;5013253;28;20326;-47
2022/12/28 00:11:03;;;;;;;4.63;2.40;;;16.10;52.30;17.30;101021.00;;;;5030524;28;20180;-46
2022/12/28 00:13:29;;;;;;;3.00;2.20;;;16.00;52.90;17.30;101046.00;;;;5029952;28;20330;-47
2022/12/28 00:15:55;;;;;;;3.30;2.20;;;16.10;53.10;17.30;100985.00;;;;5030115;28;20267;-46
2022/12/28 00:18:20;;;;;;;2.90;2.17;;;16.10;53.40;17.30;101047.00;;;;5013631;28;20261;-48
2022/12/28 00:20:58;;;;;;;3.70;2.40;;;16.10;53.30;17.30;101053.00;;;;5030094;28;20262;-47
2022/12/28 00:23:25;;;;;;;2.90;1.97;;;16.00;53.40;17.20;101057.00;;;;5013633;28;20205;-47
2022/12/28 00:25:51;;;;;;;3.43;2.10;;;16.00;53.80;17.20;101045.00;;;;5030211;28;20731;-47
2022/12/28 00:28:17;;;;;;;2.43;2.00;;;16.00;54.10;17.20;101040.00;;;;5030385;28;20207;-46
2022/12/28 00:30:43;;;;;;;3.17;2.00;;;16.00;54.00;17.10;101047.00;;;;5030581;28;20264;-47
2022/12/28 00:33:09;;;;;;;3.20;2.17;;;16.00;53.90;17.10;101040.00;;;;5030701;28;20349;-46
2022/12/28 00:35:35;;;;;;;2.57;1.90;;;15.90;54.10;17.10;101033.00;;;;5030458;28;20172;-46
2022/12/28 00:38:00;;;;;;;2.37;1.97;;;15.90;54.10;17.10;101044.00;;;;5030138;28;20179;-47
2022/12/28 00:40:26;;;;;;;2.57;2.13;;;15.90;54.00;17.10;101034.00;;;;5030354;28;20203;-46
2022/12/28 00:42:52;;;;;;;3.13;2.10;;;15.90;54.20;17.10;101031.00;;;;5013293;28;20298;-45
2022/12/28 00:45:17;;;;;;;4.30;2.10;;;15.90;54.20;17.10;101005.00;;;;5013170;28;20269;-46
2022/12/28 00:47:43;;;;;;;3.33;2.10;;;15.80;54.30;17.10;100922.00;;;;5013150;28;20241;-45
2022/12/28 00:50:09;;;;;;;2.87;2.00;;;15.90;54.20;17.00;100973.00;;;;5029731;28;20225;-47
2022/12/28 00:52:35;;;;;;;2.03;1.83;;;15.80;54.30;17.00;100996.00;;;;5029265;28;20295;-48
2022/12/28 00:55:01;;;;;;;2.93;2.10;;;15.80;54.50;17.00;100984.00;;;;5013043;28;20167;-47
2022/12/28 00:57:26;;;;;;;3.03;2.10;;;15.80;54.70;17.00;100994.00;;;;5030793;28;20179;-46
2022/12/28 00:59:52;;;;;;;2.87;2.07;;;15.70;54.70;17.00;100981.00;;;;5029778;28;20640;-47
2022/12/28 01:02:18;;;;;;;2.53;2.20;;;15.70;55.00;16.60;100971.00;;;;5013098;28;20190;-46
2022/12/28 01:04:43;;;;;;;3.23;2.00;;;15.80;55.00;16.90;100888.00;;;;5013054;28;20241;-46
2022/12/28 01:07:10;;;;;;;2.67;1.90;;;15.70;55.00;16.90;100793.00;;;;5029716;28;20180;-47
2022/12/28 01:09:36;;;;;;;2.50;2.00;;;15.70;55.10;16.90;100847.00;;;;5012717;28;20796;-46
2022/12/28 01:12:01;;;;;;;2.20;2.00;;;15.70;55.10;16.90;100875.00;;;;5012823;28;20248;-47
2022/12/28 01:14:27;;;;;;;3.63;1.90;;;15.60;55.10;16.90;100953.00;;;;5013074;28;20211;-46
2022/12/28 01:16:53;;;;;;;2.60;2.00;;;15.60;55.20;16.80;100863.00;;;;5029431;28;20198;-47
2022/12/28 01:19:20;;;;;;;2.23;2.03;;;15.60;55.20;16.80;100937.00;;;;5029954;28;20183;-46
2022/12/28 01:21:50;;;;;;;2.23;2.00;;;15.60;55.30;16.80;100946.00;;;;5031663;28;20183;-47
2022/12/28 01:24:15;;;;;;;2.60;2.07;;;15.60;55.20;16.80;100942.00;;;;5029761;28;20531;-48
2022/12/28 01:26:41;;;;;;;3.13;2.03;;;15.60;55.20;16.80;100942.00;;;;5011806;28;20203;-45
2022/12/28 01:29:07;;;;;;;2.83;2.17;;;15.60;55.20;16.80;100947.00;;;;5029036;28;20171;-47
2022/12/28 01:31:33;;;;;;;2.37;2.00;;;15.50;55.10;16.80;100939.00;;;;5012279;28;20183;-47
2022/12/28 01:33:59;;;;;;;3.00;2.13;;;15.50;55.30;16.70;100940.00;;;;5028754;28;20261;-46
2022/12/28 01:36:27;;;;;;;2.97;2.17;;;15.50;55.10;16.70;100916.00;;;;5028450;28;20195;-48
2022/12/28 01:38:55;;;;;;;2.60;2.00;;;15.50;55.50;16.70;100924.00;;;;5028641;28;20182;-46
2022/12/28 01:41:20;;;;;;;2.10;1.90;;;15.50;55.60;16.70;100912.00;;;;5033811;28;20194;-46
2022/12/28 01:44:06;;;;;;;2.43;1.97;;;15.50;55.60;16.70;100914.00;;;;5031150;28;20233;-46
2022/12/28 01:47:01;;;;;;;2.40;1.93;;;15.40;55.60;16.70;100915.00;;;;5018202;28;20223;-46
2022/12/28 01:50:07;;;;;;;2.30;1.90;;;15.50;55.80;16.60;100911.00;;;;5012012;28;20225;-48
2022/12/28 01:52:37;;;;;;;1.93;1.83;;;15.50;55.80;16.60;100815.00;;;;5006923;28;20698;-52
2022/12/28 01:55:09;;;;;;;2.30;1.90;;;15.40;55.80;16.60;100901.00;;;;5012134;28;20190;-45
2022/12/28 01:58:10;;;;;;;2.37;2.00;;;15.40;55.80;16.60;100906.00;;;;5028573;28;20527;-46
2022/12/28 02:00:35;;;;;;;2.50;2.00;;;15.40;55.90;16.50;100889.00;;;;5015530;28;20186;-46
2022/12/28 02:03:11;;;;;;;2.30;2.00;;;15.40;55.90;16.50;100795.00;;;;5028240;28;20611;-49
2022/12/28 02:05:42;;;;;;;2.67;1.90;;;15.40;55.90;16.50;100870.00;;;;5028220;28;20163;-48
2022/12/28 02:08:23;;;;;;;2.33;1.90;;;15.30;56.00;16.50;100771.00;;;;5028334;28;20163;-47
2022/12/28 02:10:49;;;;;;;3.27;2.00;;;15.30;56.00;16.50;100865.00;;;;5011659;28;20236;-47
2022/12/28 02:13:15;;;;;;;2.17;1.90;;;15.30;56.00;16.20;100857.00;;;;5027443;28;20210;-46
2022/12/28 02:15:41;;;;;;;2.83;1.93;;;15.30;56.00;16.40;100719.00;;;;5027771;28;20206;-45
2022/12/28 02:18:07;;;;;;;2.57;1.70;;;15.30;56.10;16.10;100859.00;;;;5027806;28;20209;-47
2022/12/28 02:20:40;;;;;;;2.40;1.93;;;15.20;56.00;16.40;100778.00;;;;5028001;28;20632;-47
2022/12/28 02:23:26;;;;;;;2.47;1.83;;;15.30;56.20;16.40;100864.00;;;;5027949;28;20191;-46
2022/12/28 02:26:10;;;;;;;2.10;1.90;;;15.20;56.20;16.40;100849.00;;;;5027829;28;20617;-46
2022/12/28 02:29:04;;;;;;;2.13;1.80;;;15.10;56.10;16.30;100835.00;;;;5028050;28;20663;-48
2022/12/28 02:31:45;;;;;;;2.20;2.00;;;15.20;56.20;16.30;100823.00;;;;5027672;28;20178;-47
2022/12/28 02:34:36;;;;;;;2.73;1.90;;;15.20;56.20;16.30;100821.00;;;;5011487;28;20195;-45
2022/12/28 02:37:40;;;;;;;2.43;1.90;;;15.20;56.20;16.30;100823.00;;;;5027830;28;20166;-46
2022/12/28 02:40:23;;;;;;;2.83;1.83;;;15.10;56.10;16.30;100822.00;;;;5015380;28;20186;-47
2022/12/28 02:42:50;;;;;;;2.20;1.80;;;15.10;56.10;16.30;100818.00;;;;5011806;28;20194;-45
2022/12/28 02:51:07;;;;;;;2.70;1.93;;;15.10;56.30;16.20;100815.00;;;;5028868;28;20189;-45
2022/12/28 02:54:08;;;;;;;2.03;1.83;;;15.10;57.00;16.20;100798.00;;;;5010789;28;20202;-46
2022/12/28 02:56:56;;;;;;;2.97;1.87;;;15.10;56.40;16.20;100798.00;;;;5006260;28;20184;-47
2022/12/28 02:59:56;;;;;;;2.27;1.70;;;15.00;56.40;16.20;100694.00;;;;5012748;28;20261;-46
2022/12/28 03:02:31;;;;;;;2.00;1.80;;;15.00;56.40;16.10;100698.00;;;;5028303;28;20194;-46
2022/12/28 03:05:12;;;;;;;2.13;1.90;;;15.00;56.40;16.10;100768.00;;;;5010838;28;20647;-46
2022/12/28 03:08:18;;;;;;;2.13;1.70;;;15.00;56.40;16.10;100780.00;;;;5027081;28;20167;-46
2022/12/28 03:11:22;;;;;;;1.70;1.60;;;15.00;56.40;16.10;100766.00;;;;5027434;28;20151;-47
2022/12/28 03:14:08;;;;;;;2.30;2.10;;;15.00;56.50;16.10;100766.00;;;;5010682;28;20562;-46
2022/12/28 03:25:41;;;;;;;2.83;2.00;;;15.00;56.50;16.00;100765.00;;;;5027528;28;20182;-46
2022/12/28 03:33:16;;;;;;;2.50;1.90;;;15.10;56.40;16.10;100648.00;;;;5026929;28;20703;-46
2022/12/28 03:35:53;;;;;;;2.47;1.70;;;15.10;56.40;16.10;100727.00;;;;5026837;28;20179;-48
2022/12/28 03:38:26;;;;;;;2.10;1.90;;;15.00;56.40;16.10;100658.00;;;;5010464;28;20258;-48
2022/12/28 03:41:06;;;;;;;2.00;1.67;;;15.10;56.50;16.10;100633.00;;;;5026986;28;20148;-46
2022/12/28 03:43:43;;;;;;;2.00;1.70;;;15.10;56.60;16.10;100649.00;;;;4993972;28;20206;-49
2022/12/28 03:46:35;;;;;;;2.80;1.90;;;15.00;56.40;16.10;100724.00;;;;5028179;28;20168;-47
2022/12/28 03:49:01;;;;;;;2.03;1.73;;;15.00;56.60;16.10;100748.00;;;;5035390;28;20263;-46
2022/12/28 03:51:27;;;;;;;2.60;1.70;;;14.90;57.10;15.80;100720.00;;;;5021813;28;20175;-46
2022/12/28 03:53:53;;;;;;;1.87;1.73;;;15.00;56.60;16.00;100652.00;;;;5018497;28;20203;-47
2022/12/28 03:56:22;;;;;;;2.13;1.80;;;15.00;56.50;16.10;100719.00;;;;5030853;28;20167;-47
2022/12/28 03:58:48;;;;;;;2.03;1.70;;;14.90;56.70;16.10;100709.00;;;;5030968;28;20254;-45
2022/12/28 04:01:13;;;;;;;1.83;1.70;;;14.90;56.60;16.10;100704.00;;;;5014298;28;20298;-47
2022/12/28 04:03:39;;;;;;;2.00;1.80;;;14.90;56.60;16.10;100701.00;;;;5014255;28;20265;-48
2022/12/28 04:06:05;;;;;;;2.00;1.80;;;14.90;56.70;15.80;100619.00;;;;5014525;28;20186;-48
2022/12/28 04:08:32;;;;;;;2.10;1.60;;;14.80;56.60;16.00;100609.00;;;;5014023;28;20171;-47
2022/12/28 04:10:58;;;;;;;1.90;1.80;;;14.80;56.70;16.00;100678.00;;;;5030928;28;20182;-47
2022/12/28 04:13:24;;;;;;;1.80;1.70;;;14.80;56.70;16.00;100603.00;;;;5030233;28;20205;-47
2022/12/28 04:16:02;;;;;;;1.97;1.70;;;14.80;56.60;16.00;100685.00;;;;5013942;28;20170;-47
2022/12/28 04:18:29;;;;;;;2.20;1.80;;;14.80;56.70;16.00;100691.00;;;;5011338;28;20913;-48
2022/12/28 04:20:55;;;;;;;2.10;1.80;;;14.80;56.70;16.00;100685.00;;;;5010535;28;20179;-46
2022/12/28 04:23:21;;;;;;;1.87;1.50;;;14.80;56.70;15.70;100690.00;;;;5012058;28;20194;-46
2022/12/28 04:26:00;;;;;;;1.60;1.50;;;14.90;56.70;16.00;100688.00;;;;4995560;28;20194;-46
2022/12/28 04:28:26;;;;;;;2.53;1.70;;;14.80;56.70;16.00;100683.00;;;;5009602;28;20500;-46
2022/12/28 04:30:51;;;;;;;2.97;1.70;;;14.80;57.30;16.00;100679.00;;;;4991109;28;20172;-47
2022/12/28 04:33:17;;;;;;;2.97;1.90;;;14.80;56.80;15.90;100666.00;;;;4958104;28;20333;-47
2022/12/28 04:35:43;;;;;;;4.03;2.00;;;14.70;56.90;15.90;100675.00;;;;4974841;28;20195;-49
2022/12/28 04:38:09;;;;;;;2.17;1.73;;;14.70;56.50;15.80;100664.00;;;;4974506;28;20704;-48
2022/12/28 04:40:34;;;;;;;3.00;1.73;;;14.70;56.60;15.80;100664.00;;;;4974414;28;20797;-46
2022/12/28 04:43:00;;;;;;;2.07;1.70;;;14.60;56.40;15.70;100656.00;;;;4957998;28;20203;-48
2022/12/28 04:45:26;;;;;;;2.50;2.00;;;14.60;56.30;15.70;100659.00;;;;4990681;28;20199;-47
2022/12/28 04:47:56;;;;;;;2.33;2.13;;;14.60;56.90;15.70;100589.00;;;;4991093;28;20275;-47
2022/12/28 04:50:22;;;;;;;3.00;1.83;;;14.70;56.20;15.60;100626.00;;;;4958975;28;20183;-48
2022/12/28 04:52:48;;;;;;;2.60;2.00;;;14.70;56.20;15.60;100649.00;;;;4958435;28;20683;-49
2022/12/28 04:55:14;;;;;;;3.43;2.00;;;14.70;56.10;15.60;100564.00;;;;4992124;28;20222;-48
2022/12/28 04:57:42;;;;;;;2.10;1.80;;;14.60;56.10;15.60;100636.00;;;;4958918;28;20176;-47
2022/12/28 05:00:09;;;;;;;2.47;1.73;;;14.50;56.20;15.50;100642.00;;;;4975150;28;20196;-48
2022/12/28 05:02:35;;;;;;;2.00;1.80;;;14.50;56.40;15.50;100630.00;;;;4974169;28;20260;-48
2022/12/28 05:05:00;;;;;;;2.57;1.93;;;14.50;56.40;15.50;100628.00;;;;4974884;28;20263;-48
2022/12/28 05:07:27;;;;;;;2.27;1.50;;;14.50;56.40;15.20;100611.00;;;;4990980;28;20203;-48
2022/12/28 05:09:53;;;;;;;2.20;1.80;;;14.50;56.40;15.50;100520.00;;;;4974795;28;20259;-46
2022/12/28 05:12:19;;;;;;;2.67;1.73;;;14.50;56.40;15.50;100537.00;;;;4990816;28;20718;-48
2022/12/28 05:14:45;;;;;;;2.13;1.80;;;14.50;56.40;15.40;100511.00;;;;4983111;28;20715;-50
2022/12/28 05:17:10;;;;;;;3.27;1.67;;;14.50;56.40;15.40;100615.00;;;;5004831;28;20192;-47
2022/12/28 05:19:36;;;;;;;2.07;1.73;;;14.50;56.40;15.40;100610.00;;;;5017925;28;20203;-47
2022/12/28 05:22:02;;;;;;;1.60;1.50;;;14.40;56.30;15.40;100621.00;;;;5010502;28;20188;-47
2022/12/28 05:24:28;;;;;;;2.67;1.70;;;14.40;56.40;15.40;100607.00;;;;5009176;28;20179;-48
2022/12/28 05:26:53;;;;;;;1.97;1.70;;;14.40;56.40;15.40;100529.00;;;;5009913;28;20183;-47
2022/12/28 05:29:19;;;;;;;1.83;1.70;;;14.40;56.50;15.40;100539.00;;;;5009338;28;20180;-52
2022/12/28 05:31:45;;;;;;;2.07;1.80;;;14.40;56.50;15.30;100610.00;;;;5009489;28;20176;-47
2022/12/28 05:34:10;;;;;;;2.60;1.90;;;14.40;56.40;15.30;100601.00;;;;5009844;28;20203;-48
2022/12/28 05:36:36;;;;;;;2.70;1.90;;;14.50;56.20;15.30;100602.00;;;;5010664;28;20171;-48
2022/12/28 05:39:03;;;;;;;1.90;1.70;;;14.50;56.10;15.30;100595.00;;;;5009174;28;20183;-48
2022/12/28 05:41:29;;;;;;;2.23;1.80;;;14.50;56.10;15.20;100602.00;;;;5008534;28;20729;-47
2022/12/28 05:43:56;;;;;;;2.67;1.83;;;14.50;56.20;15.20;100609.00;;;;5009130;28;20314;-48
2022/12/28 05:46:33;;;;;;;2.10;1.77;;;14.50;56.30;15.20;100595.00;;;;4992644;28;20176;-48
2022/12/28 05:48:59;;;;;;;2.60;1.80;;;14.50;56.20;15.20;100477.00;;;;5009247;28;20250;-46
2022/12/28 05:51:30;;;;;;;1.90;1.63;;;14.50;56.10;15.20;100599.00;;;;5009059;28;20176;-47
2022/12/28 05:53:57;;;;;;;2.00;1.77;;;14.40;56.30;15.20;100596.00;;;;5009037;28;20299;-47
2022/12/28 05:56:25;;;;;;;2.57;1.73;;;14.40;56.40;15.20;100510.00;;;;5008988;28;20168;-47
2022/12/28 05:58:56;;;;;;;2.60;1.87;;;14.40;56.60;14.90;100499.00;;;;5008893;28;20259;-46
2022/12/28 06:01:24;;;;;;;1.97;1.77;;;14.30;56.60;15.20;100504.00;;;;5009020;28;20222;-49
2022/12/28 06:04:02;;;;;;;1.70;1.60;;;14.30;56.50;15.20;100493.00;;;;4991887;28;20238;-47
2022/12/28 06:06:28;;;;;;;3.40;1.70;;;14.40;56.40;15.10;100581.00;;;;5009079;28;20187;-47
2022/12/28 06:08:54;;;;;;;3.17;1.70;;;14.30;56.20;15.10;100464.00;;;;5009115;28;20245;-47
2022/12/28 06:11:22;;;;;;;4.47;1.80;;;14.30;56.20;15.10;100582.00;;;;5008228;28;20589;-46
2022/12/28 06:13:48;;;;;;;1.80;1.60;;;14.30;56.40;15.10;100483.00;;;;4991200;28;20242;-49
2022/12/28 06:16:16;;;;;;;2.07;1.73;;;14.40;56.40;15.10;100486.00;;;;5007030;28;20675;-47
2022/12/28 06:18:42;;;;;;;1.87;1.67;;;14.30;56.40;14.80;100487.00;;;;4991062;28;20187;-48
2022/12/28 06:21:16;;;;;;;2.10;1.70;;;14.30;56.40;15.10;100578.00;;;;5008424;28;20172;-46
2022/12/28 06:23:42;;;;;;;2.07;1.80;;;14.30;56.50;15.00;100561.00;;;;5008607;28;20765;-49
2022/12/28 06:26:10;;;;;;;1.70;1.60;;;14.30;56.60;15.00;100557.00;;;;5008766;28;20653;-47
2022/12/28 06:28:36;;;;;;;2.10;1.73;;;14.30;56.60;15.00;100515.00;;;;5008909;28;20179;-47
2022/12/28 06:31:03;;;;;;;2.00;1.70;;;14.30;56.70;14.70;100565.00;;;;5009899;28;20236;-47
2022/12/28 06:33:29;;;;;;;1.87;1.60;;;14.30;56.70;15.00;100557.00;;;;5008304;28;20688;-47
2022/12/28 06:35:54;;;;;;;1.63;1.50;;;14.20;56.40;15.00;100539.00;;;;4992650;28;20286;-45
2022/12/28 06:38:20;;;;;;;1.73;1.63;;;14.30;56.70;15.00;100547.00;;;;5010143;28;20182;-47
2022/12/28 06:40:46;;;;;;;1.80;1.70;;;14.30;56.70;14.70;100546.00;;;;5008742;28;20195;-49
2022/12/28 06:43:12;;;;;;;2.03;1.83;;;14.20;56.70;14.90;100539.00;;;;4991933;28;20237;-48
2022/12/28 06:45:37;;;;;;;2.07;1.57;;;14.20;56.70;14.90;100550.00;;;;5008916;28;20186;-48
2022/12/28 06:48:03;;;;;;;2.73;1.80;;;14.20;56.70;14.90;100551.00;;;;5010227;28;20198;-47
2022/12/28 06:50:29;;;;;;;1.60;1.50;;;14.20;56.70;14.90;100476.00;;;;5010089;28;20649;-47
2022/12/28 06:52:55;;;;;;;1.50;1.40;;;14.20;56.70;14.90;100555.00;;;;5008166;28;20199;-47
2022/12/28 06:55:21;;;;;;;3.20;1.70;;;14.20;56.70;14.90;100556.00;;;;5008834;28;20178;-50
2022/12/28 06:57:46;;;;;;;2.67;1.70;;;14.20;56.70;14.90;100546.00;;;;5008415;28;20175;-48
2022/12/28 07:00:13;;;;;;;1.57;1.40;;;14.20;56.70;14.90;100449.00;;;;5010026;28;20536;-47
2022/12/28 07:02:38;;;;;;;2.70;1.60;;;14.10;56.80;14.80;100556.00;;;;4991767;28;20253;-46
2022/12/28 07:05:04;;;;;;;1.60;1.50;;;14.10;56.70;14.80;100555.00;;;;4992205;28;20278;-48
2022/12/28 07:07:30;;;;;;;2.37;1.50;;;14.10;56.80;14.80;100565.00;;;;5009664;28;20208;-48
2022/12/28 07:09:56;;;;;;;1.37;1.27;;;14.10;56.80;14.80;100567.00;;;;5008551;28;20652;-47
2022/12/28 07:12:21;;;;;;;1.60;1.50;;;14.10;56.80;14.80;100474.00;;;;5011007;28;20252;-48
2022/12/28 07:14:47;;;;;;;2.33;1.60;;;14.10;56.90;14.80;100575.00;;;;5013223;28;20219;-46
2022/12/28 07:17:13;;;;;;;2.30;1.60;;;14.00;56.90;14.80;100568.00;;;;5013625;28;20279;-46
2022/12/28 07:19:38;;;;;;;1.77;1.50;;;14.00;57.00;14.80;100565.00;;;;5009455;28;20179;-47
2022/12/28 07:22:04;;;;;;;2.67;1.70;;;14.00;57.00;14.80;100480.00;;;;5008692;28;20644;-48
2022/12/28 07:24:30;;;;;;;1.93;1.70;;;14.00;57.00;14.70;100558.00;;;;4991987;28;20234;-48
2022/12/28 07:26:56;;;;;;;1.73;1.40;;;14.00;57.20;14.70;100554.00;;;;4996195;28;20183;-49
2022/12/28 07:29:22;;;;;;;1.63;1.40;;;14.00;57.30;14.70;100481.00;;;;5013207;28;20663;-46
2022/12/28 07:31:47;;;;;;;1.97;1.50;;;14.00;57.60;14.70;100562.00;;;;5011849;28;20180;-46
2022/12/28 07:34:14;;;;;;;1.83;1.33;;;14.00;57.60;14.70;100565.00;;;;5011965;28;20200;-47
2022/12/28 07:36:40;;;;;;;1.50;1.40;;;14.00;57.70;14.70;100569.00;;;;5012389;28;20598;-49
2022/12/28 07:39:06;;;;;;;1.63;1.53;;;14.00;57.70;14.70;100472.00;;;;5012447;28;20192;-47
2022/12/28 07:42:05;;;;;;;3.03;1.37;;;13.90;57.80;14.40;100568.00;;;;4995456;28;20175;-45
2022/12/28 07:44:31;;;;;;;1.70;1.60;;;13.90;58.00;14.60;100568.00;;;;5013435;28;20168;-47
2022/12/28 07:46:57;;;;;;;2.23;1.60;;;13.90;58.00;14.60;100568.00;;;;4995919;28;20188;-46
2022/12/28 07:49:22;;;;;;;2.53;1.60;;;13.90;58.10;14.60;100565.00;;;;4995751;28;20175;-48
2022/12/28 07:51:48;;;;;;;1.80;1.60;;;13.90;58.30;14.60;100572.00;;;;5011692;28;20211;-48
2022/12/28 07:54:14;;;;;;;1.77;1.50;;;13.90;58.50;14.60;100556.00;;;;4995051;28;20273;-46
2022/12/28 07:56:40;;;;;;;1.70;1.60;;;13.90;58.40;14.60;100484.00;;;;4995548;28;20172;-46
2022/12/28 07:59:06;;;;;;;2.33;1.70;;;13.80;58.60;14.60;100552.00;;;;4985642;28;20176;-47
2022/12/28 08:01:33;;;;;;;1.87;1.60;;;13.80;58.60;14.60;100551.00;;;;5012057;28;20175;-47
2022/12/28 08:04:02;;;;;;;2.00;1.60;;;13.90;58.70;14.60;100552.00;;;;5014177;28;20210;-46
2022/12/28 08:06:28;;;;;;;1.50;1.40;;;13.80;58.70;14.60;100554.00;;;;5003190;28;20187;-48
2022/12/28 08:08:57;;;;;;;1.70;1.60;;;13.80;58.70;14.60;100557.00;;;;5019608;28;20180;-55
2022/12/28 08:11:25;;;;;;;1.70;1.60;;;13.80;58.70;14.60;100469.00;;;;5015720;28;20175;-47
2022/12/28 08:13:53;;;;;;;2.07;1.70;;;13.80;58.80;14.60;100546.00;;;;5014202;28;20656;-48
2022/12/28 08:16:20;;;;;;;2.87;1.60;;;13.80;58.70;14.60;100426.00;;;;5010354;28;20172;-46
2022/12/28 08:18:46;;;;;;;1.73;1.50;;;13.80;58.60;14.60;100546.00;;;;5027185;28;20183;-47
2022/12/28 08:21:21;;;;;;;1.43;1.33;;;13.80;58.60;14.50;100551.00;;;;5016499;28;20634;-46
2022/12/28 08:23:47;;;;;;;1.70;1.60;;;13.80;58.70;14.50;100553.00;;;;4995652;28;20201;-48
2022/12/28 08:26:24;;;;;;;1.60;1.50;;;13.80;58.80;14.50;100549.00;;;;5011479;28;20175;-47
2022/12/28 08:28:53;;;;;;;2.20;1.70;;;13.80;58.80;14.50;100555.00;;;;4995217;28;20175;-47
2022/12/28 08:31:25;;;;;;;2.80;1.60;;;13.70;59.10;14.60;100461.00;;;;5008704;28;20281;-47
2022/12/28 08:33:52;;;;;;;9.17;1.77;;;13.60;59.20;14.60;100547.00;;;;5008706;28;20208;-46
2022/12/28 08:36:17;;;;;;;4.87;1.73;;;13.70;59.10;14.70;100543.00;;;;4992940;28;20275;-47
2022/12/28 08:38:43;;;;;;;4.33;1.70;;;13.80;59.10;14.70;100450.00;;;;5010433;28;20226;-46
2022/12/28 08:41:15;;;;;;;4.37;1.73;;;13.80;59.50;14.80;100545.00;;;;4994508;28;20182;-47
2022/12/28 08:43:41;;;;;;;3.07;1.53;;;13.90;59.60;14.90;100536.00;;;;4978289;28;20200;-47
2022/12/28 08:46:17;;;;;;;4.60;1.50;;;14.10;59.60;15.00;100453.00;;;;5010283;28;20538;-46
2022/12/28 08:48:44;;;;;;;2.70;1.60;;;14.20;59.40;15.10;100543.00;;;;5011075;28;20167;-47
2022/12/28 08:51:15;;;;;;;3.07;1.47;;;14.40;59.20;15.10;100549.00;;;;5010204;28;20210;-47
2022/12/28 08:53:41;;;;;;;4.13;1.63;;;14.50;59.50;15.20;100548.00;;;;4994244;28;20621;-46
2022/12/28 08:56:15;;;;;;;1.93;1.50;;;14.70;58.70;15.30;100531.00;;;;5009921;28;20180;-46
2022/12/28 08:58:42;;;;;;;1.53;1.43;;;14.80;59.10;15.40;100446.00;;;;5012307;28;20211;-47
2022/12/28 09:01:09;;;;;;;2.53;1.33;;;15.00;58.30;15.50;100456.00;;;;4998153;28;20201;-46
2022/12/28 09:03:36;;;;;;;1.63;1.20;;;15.20;58.10;15.70;100536.00;;;;5010119;28;20226;-47
2022/12/28 09:06:08;;;;;;;2.73;1.60;;;15.30;57.90;15.80;100447.00;;;;4993429;28;20179;-48
2022/12/28 09:08:33;;;;;;;1.67;1.37;;;15.50;57.80;15.90;100535.00;;;;5010609;28;20203;-48
2022/12/28 09:11:01;;;;;;;2.10;1.30;;;15.70;57.50;16.00;100457.00;;;;5010095;28;20179;-48
2022/12/28 09:13:27;;;;;;;1.50;1.40;;;15.90;57.60;16.20;100534.00;;;;5009483;28;20242;-47
2022/12/28 09:15:57;;;;;;;1.50;1.40;;;16.00;57.30;16.30;100537.00;;;;5009327;28;20168;-49
2022/12/28 09:18:23;;;;;;;3.27;1.27;;;16.20;57.20;16.40;100531.00;;;;4993559;28;20183;-48
2022/12/28 09:20:49;;;;;;;2.33;1.40;;;16.30;56.90;16.60;100431.00;;;;5010527;28;20214;-47
2022/12/28 09:23:14;;;;;;;1.47;1.03;;;16.50;56.90;16.40;100526.00;;;;4993235;28;20199;-48
2022/12/28 09:25:40;;;;;;;2.37;1.10;;;16.60;56.70;16.50;100525.00;;;;4992976;28;20176;-49
2022/12/28 09:28:06;;;;;;;1.53;1.43;;;16.70;56.70;16.90;100527.00;;;;4993005;28;20187;-47
2022/12/28 09:30:31;;;;;;;1.37;1.17;;;16.80;56.60;17.00;100527.00;;;;4993172;28;20268;-48
2022/12/28 09:35:41;;;;;;;1.60;1.20;;;17.00;56.40;17.20;100447.00;;;;5008685;28;20198;-48
2022/12/28 09:38:07;;;;;;;1.37;1.03;;;17.10;56.40;17.30;100534.00;;;;5009705;28;20584;-47
2022/12/28 09:40:34;;;;;;;2.23;1.20;;;17.20;56.50;17.40;100527.00;;;;5009170;28;20171;-48
2022/12/28 09:43:00;;;;;;;1.90;1.10;;;17.20;56.50;17.50;100535.00;;;;4993006;28;20193;-47
2022/12/28 09:45:26;;;;;;;0.77;0.77;;;17.30;56.60;17.60;100524.00;;;;5009452;28;20229;-47
2022/12/28 09:47:54;;;;;;;1.20;1.20;;;17.40;56.60;17.60;100451.00;;;;5008959;28;20180;-46
2022/12/28 09:50:28;;;;;;;1.33;1.13;;;17.40;56.70;17.70;100547.00;;;;5009939;28;20242;-47
2022/12/28 09:53:18;;;;;;;1.40;1.10;;;17.40;56.70;17.80;100533.00;;;;5009014;28;20242;-47
2022/12/28 09:56:03;;;;;;;0.97;0.97;;;17.40;56.70;17.80;100462.00;;;;5009468;28;20156;-47
2022/12/28 09:58:31;;;;;;;1.30;1.20;;;17.50;56.70;17.90;100547.00;;;;5009870;28;20183;-47
2022/12/28 10:00:59;;;;;;;1.13;1.10;;;17.60;56.80;17.90;100540.00;;;;4996762;28;20168;-47
2022/12/28 10:03:37;;;;;;;1.27;1.00;;;17.60;56.90;18.00;100537.00;;;;5010487;28;20227;-47
2022/12/28 10:06:08;;;;;;;0.70;0.70;;;17.60;56.90;18.00;100453.00;;;;5008763;28;20156;-49
2022/12/28 10:08:34;;;;;;;2.40;1.20;;;17.60;56.90;18.00;100540.00;;;;5015296;28;20625;-48
2022/12/28 10:11:00;;;;;;;2.07;0.97;;;17.60;56.90;18.10;100529.00;;;;5005059;28;20182;-45
2022/12/28 10:13:32;;;;;;;1.50;1.10;;;17.60;57.10;18.10;100527.00;;;;4982183;28;20258;-46
2022/12/28 10:15:58;;;;;;;3.10;1.23;;;17.70;57.50;18.10;100409.00;;;;4983297;28;20175;-48
2022/12/28 10:18:25;;;;;;;2.70;1.37;;;17.70;57.50;18.20;100487.00;;;;4981335;28;20187;-47
2022/12/28 10:20:51;;;;;;;2.10;1.27;;;17.70;57.60;18.20;100473.00;;;;4998712;28;20172;-45
2022/12/28 10:23:22;;;;;;;6.00;1.30;;;17.70;57.80;18.20;100534.00;;;;4981016;28;20192;-46
2022/12/28 10:25:49;;;;;;;4.70;1.30;;;17.70;58.60;18.20;100514.00;;;;4999725;28;20534;-47
2022/12/28 10:28:15;;;;;;;6.00;1.37;;;17.70;58.60;18.20;100506.00;;;;4989476;28;20173;-47
2022/12/28 10:31:01;;;;;;;6.20;1.40;;;17.60;59.00;18.20;100511.00;;;;4988823;28;20255;-48
2022/12/28 10:33:27;;;;;;;8.37;1.80;;;17.60;59.10;18.20;100434.00;;;;4988784;28;20292;-48
2022/12/28 10:35:53;;;;;;;17.10;1.90;;;17.70;59.00;18.30;100425.00;;;;4988888;28;20287;-46
2022/12/28 10:38:27;;;;;;;7.10;1.57;;;17.80;59.00;18.30;100500.00;;;;4989350;28;20531;-46
2022/12/28 10:41:17;;;;;;;5.20;1.60;;;17.80;59.00;18.30;100498.00;;;;4989199;28;20171;-47
2022/12/28 10:43:47;;;;;;;11.63;1.80;;;17.80;58.90;18.30;100499.00;;;;4995214;28;20211;-49
2022/12/28 10:46:21;;;;;;;6.63;1.50;;;17.80;58.90;18.30;100425.00;;;;4972840;28;20786;-49
2022/12/28 10:48:55;;;;;;;10.90;1.87;;;17.80;58.70;18.30;100492.00;;;;4973657;28;20172;-50
2022/12/28 10:51:23;;;;;;;5.70;1.80;;;17.90;58.60;18.40;100421.00;;;;4973193;28;20170;-48
2022/12/28 10:53:54;;;;;;;4.83;1.37;;;17.80;58.60;18.40;100492.00;;;;4972560;28;20208;-48
2022/12/28 10:56:25;;;;;;;3.07;1.43;;;17.80;58.70;18.40;100487.00;;;;4956562;28;20748;-50
2022/12/28 10:58:53;;;;;;;8.60;1.53;;;17.90;58.60;18.40;100410.00;;;;4973285;28;20172;-48
2022/12/28 11:01:27;;;;;;;8.13;1.60;;;17.90;58.50;18.40;100483.00;;;;4972245;28;20672;-47
2022/12/28 11:03:57;;;;;;;11.37;2.13;;;17.80;58.50;18.40;100480.00;;;;4990540;28;20238;-49
2022/12/28 11:06:25;;;;;;;5.90;2.00;;;17.90;58.50;18.50;100411.00;;;;5007667;28;20205;-49
2022/12/28 11:09:15;;;;;;;12.17;2.47;;;17.90;59.10;18.50;100461.00;;;;5008386;28;20171;-49
2022/12/28 11:11:45;;;;;;;5.77;2.03;;;17.90;58.30;18.50;100455.00;;;;5009645;28;20179;-47
2022/12/28 11:14:37;;;;;;;5.27;2.17;;;18.00;58.40;18.50;100455.00;;;;4975752;28;20198;-46
2022/12/28 11:17:19;;;;;;;5.67;1.87;;;18.00;58.40;18.30;100454.00;;;;5004324;28;20205;-47
2022/12/28 11:19:45;;;;;;;7.03;2.40;;;18.00;58.30;18.50;100439.00;;;;4988529;28;20193;-48
2022/12/28 11:22:12;;;;;;;9.00;2.50;;;17.90;58.40;18.50;100314.00;;;;5002603;28;20327;-47